KHHF Airport (Hemphill County) Information

FAA: HHF - ICAO: KHHF

KHHF Airport Location

State Texas
County Hemphill
City Canadian
KHHF Airport is 2 miles southwest of Canadian, TX.
Latitude 35-53-42.4000N
Longitude 100-24-14.0000W
Elevation 2,396ft

KHHF Airport METARs

METAR KHHF 240915Z AUTO 22006KT 10SM CLR 16/04 A3002 RMK AO2 T01620036
Altimeter 30.02"
Temperature 16.2°C (61.2°F)
Wind 220° at 6KT
Clouds Skies are clear.
Visibility 10.0mi
Time observed: 2021-09-24T09:15:00Z

KHHF Airport Details

Status Operational
Activation July 1945
Ownership Public
Usage Public
Chart DALLAS-FT WORTH
ATC on-site No
Beacon schedule sunset-sunrise
Beacon color clear green

KHHF Airport Contacts

Owner HEMPHILL COUNTY
Owner address 400 MAIN, CANADIAN, TX 79014
Owner phone 806-323-8087
Manager BRUCE AND JUNE SHIPP
Manager address 1233 CASHION RD, WICHITA FALLS, TX 76305
Manager phone 940-636-8474

KHHF Airport (Hemphill County) Radio Frequencies

KHHF (Airport) Radio Frequencies

UNICOM N/A
Common traffic advisory frequency (CTAF) 122.9